Adams Center, NY

2:10 PM EDT on September 01, 2015 (GMT -0400)
Windsong dairy | | Change Station
CLOSE
Current Station
Personal Weather Station
Location: Adams Center, NY
Elevation: 810 ft
Nearby Weather Stations

Elev 810 ft 43.88 °N, 75.95 °W | Updated 15 seconds ago

Partly Cloudy
Partly Cloudy
80.8 °F
Feels Like 85 °F
N
5.0
Wind Variable Wind from SSW

Today
High -- | Low -- °F
--% Chance of Precip.
Yesterday
High -- | Low -- °F
Precip. -- in
6:27 AM 7:40 PM
Waning Gibbous, 87% visible
Pressure 30.05 in
Visibility 5.0 miles
Clouds Few 1800 ft
Heat Index 85 °F
Dew Point 71 °F
Humidity 72%
Rainfall 0.00 in
Snow Depth Not available.
UV 8 out of 12
Pollen 9.00 out of 12
Air Quality Not available.
Flu Activity Not available.
METAR KART 011756Z AUTO 25009KT 5SM HZ FEW018 25/19 A3006 RMK AO2 SLP174 T02500194 10256 20200 56004
Pressure 30.05 in
Visibility 5.0 miles
Clouds Few 1800 ft
Heat Index 85 °F
Dew Point 71 °F
Humidity 72%
Rainfall 0.00 in
Snow Depth Not available.
UV 8 out of 12
Pollen 9.00 out of 12
Air Quality Not available.
Flu Activity Not available.
METAR KART 011756Z AUTO 25009KT 5SM HZ FEW018 25/19 A3006 RMK AO2 SLP174 T02500194 10256 20200 56004

10-Day Weather Forecast

×

Almanac

Astronomy

Sep. 01, 2015 Rise Set
Actual Time
Civil Twilight
Nautical Twilight
Astronomical Twilight
Moon
Length of Visible Light
Length of Day
Tomorrow will be .
, % of the Moon is Illuminated

Today's Extremes

State Highs State Lows

Community

WunderPhotos

Upload Photos

1,851,592 photos uploaded!

WunderBlogs® & News

Nearby

Air Quality

  Air Quality AQ Index Pollutant
Not available.

Snow Depth

Station Depth Elevation

Earthquake Activity

City Distance Mag. Time & Date
Minimum magnitude displayed is 2.5.

Coastal Water Temperatures

Place Temperature

Stations

Nearby Weather Stations

Station Location Temp. Windchill Dew Point Humidity Wind Precip. Elev Updated Type